Tiempo atmosférico en la estación meteorológica de Granada Aeropuerto, Granada (567 m.)



Fecha
DESCASC
Temp. máxima en grados centígrados (hora)
DESCASC
Temp. mínima en grados centígrados (hora)
DESCASC
Temp. media en grados centígrados
DESCASC
Racha de viento máxima en m/sg (hora)
DESCASC
Velocidad máxima media en intervalos de 10 minutos(hora)
DESCASC
Precipitaciones diarias en mm
DESCASC
Precipitaciones de 00:00 a 06:00 en mm
DESCASC
Precipitaciones de 06:00 a 12:00 en mm
DESCASC
Precipitaciones de 12:00 a 18:00 en mm
DESCASC
Precipitaciones de 18:00 a 24:00 en mm
DESCASC
18-08-2019 37.3 (14:50) 15 (07:50) 26.1 10.83 (19:20) 6.67 (19:20) 0 0 0 0 0
17-08-2019 39.5 (16:10) 15.9 (08:00) 27.7 9.17 (15:30) 5 (20:10) 0 0 0 0 0
16-08-2019 38.4 (17:40) 17.2 (06:30) 27.8 11.39 (18:00) 6.67 (18:40) 0 0 0 0 0
15-08-2019 37.6 (18:00) 16.7 (00:00) 27.1 10.83 (19:20) 6.39 (19:20) 0 0 0 0 0
14-08-2019 36.3 (17:50) 17.1 (00:00) 26.7 7.78 (20:50) 4.44 (20:40) 0 0 0 0 0
13-08-2019 35 (18:30) 13.6 (00:00) 24.3 12.78 (19:10) 6.39 (19:30) 0 0 0 0 0
12-08-2019 33.4 (16:50) 13.7 (00:00) 23.6 6.11 (19:00) 3.89 (20:10) 0 0 0 0 0
11-08-2019 34.5 (16:20) 19.8 (00:00) 27.1 15 (16:20) 7.78 (16:10) 0 0 0 0 0
10-08-2019 37.2 (17:10) 17.1 (00:00) 27.2 7.22 (17:20) 5 (17:20) 0 0 0 0 0
09-08-2019 37.1 (17:10) 15 (00:00) 26 9.17 (18:50) 6.39 (19:00) 0 0 0 0 0
08-08-2019 39 (17:10) 14.8 (00:00) 26.9 8.33 (18:30) 5.28 (18:30) 0 0 0 0 0
07-08-2019 37.1 (16:10) 15.4 (00:00) 26.2 9.17 (18:30) 6.94 (18:40) 0 0 0 0 0
06-08-2019 39.7 (16:40) 16.8 (00:00) 28.3 7.78 (17:30) 5.56 (19:50) 0 0 0 0 0
05-08-2019 38.8 (16:30) 17.5 (00:00) 28.1 9.72 (18:00) 6.39 (19:10) 0 0 0 0 0
04-08-2019 37.9 (17:00) 18.2 (00:00) 28.1 8.33 (17:10) 5.83 (19:40) 0 0 0 0 0
03-08-2019 37.2 (17:30) 16.6 (00:00) 26.9 8.89 (18:20) 5.56 (19:40) 0 0 0 0 0
02-08-2019 37.6 (15:40) 17.6 (00:00) 27.6 8.33 (17:10) 5.56 (17:30) 0 0 0 0 0
01-08-2019 36.1 (18:00) 18.3 (00:00) 27.2 8.89 (18:10) 5.83 (20:00) 0 0 0 0 0
31-07-2019 37.5 (17:30) 19.4 (00:00) 28.4 10.28 (20:40) 6.67 (20:40) 0 0 0 0 0
30-07-2019 37.2 (17:20) 14.8 (00:00) 26 7.22 (17:10) 5 (18:10) 0 0 0 0 0
29-07-2019 34.6 (16:30) 16.6 (00:00) 25.6 10.83 (17:30) 6.11 (17:30) 0 0 0 0 0
28-07-2019 33.7 (18:10) 16.3 (00:00) 25 10.28 (17:20) 5.83 (21:10) 0 0 0 0 0
27-07-2019 30 (17:00) 17 (00:00) 23.5 11.39 (15:50) 8.33 (16:00) 0 0 0 0 0
26-07-2019 32.5 (15:20) 19.5 (00:00) 26 12.5 (16:10) 8.61 (15:40) 0 0 0 0 0
25-07-2019 38.1 (17:30) 18.5 (00:00) 28.3 9.17 (20:20) 6.11 (19:20) 0 0 0 0 0
24-07-2019 39.4 (16:00) 18 (00:00) 28.7 11.39 (15:10) 7.22 (15:40) 0 0 0 0 0

Gráficas

Temp. máximas Temp. mínimas Temp. medias Precipitaciones Rachas de viento máximas Velocidades máximas media en intervalos de 10 minutos

Datos horarios

Fecha y hora oficial Temperatura (ºC) Velocidad del viento (km/h) Dirección del viento Racha (km/h) Dirección de racha Precipitación (mm) Presión (hPa) Tendencia (hPa) Humedad (%)
2019-08-22 23:00:00 25.2 5 Este 18 Este 0 953 2.8 65
2019-08-22 22:00:00 25.7 0 Calma 18 Sur 0 952.2 2.1 64
2019-08-22 21:00:00 27.2 5 Sudoeste 35 Sudeste 0 951 0.7 59
2019-08-22 20:00:00 30.1 23 Sur 39 Sur 0 950.2 -0.4 50
2019-08-22 19:00:00 32.9 19 Sur 30 Sur 0 950.1 -1 41
2019-08-22 18:00:00 33.8 16 Sudeste 30 Sudeste 0 950.3 -1.5 37
2019-08-22 17:00:00 34 13 Sur 30 Sudeste 0 950.6 -2 36
2019-08-22 16:00:00 33.3 5 Sur 18 Sudoeste 0 951.1 -2 36
2019-08-22 15:00:00 32.3 3 Sur 18 Sudoeste 0 951.8 -1.8 39
2019-08-22 14:00:00 30.6 5 Norte 21 Norte 0 952.6 -1.1 47
2019-08-22 13:00:00 29.4 3 Oeste 15 Norte 0 953.1 -0.6 49
2019-08-22 12:00:00 28.1 3 Este 15 Sudeste 0 953.6 -0.1 53
2019-08-22 11:00:00 25.6 4 Norte 11 Sur 0 953.7 0.7 62
2019-08-22 10:00:00 24.8 4 Este 11 Este 0 953.7 0.7 61
2019-08-22 09:00:00 22.9 3 Este 13 Este 0 953.7 0.7 64
2019-08-22 08:00:00 21.7 4 Este 11 Este 0 953 -0.4 68
2019-08-22 07:00:00 22.5 2 Norte 13 Norte 0 953 -0.5 70
2019-08-22 06:00:00 22.6 0 Calma 5 Sudoeste 0 953 -0.5 75
2019-08-22 05:00:00 22.6 4 Norte 5 Norte 0 953.4 -0.3 76
2019-08-22 04:00:00 22 0 Calma 5 Norte 0 953.5 -0.5 79
2019-08-22 03:00:00 21.8 0 Calma 4 Norte 0 953.5 -0.2 78
2019-08-22 02:00:00 21.8 0 Calma 4 Oeste 0 953.7 0.5 77
2019-08-22 01:00:00 22.4 3 Noroeste 11 Nordeste 0 954 1.7 78
2019-08-22 00:00:00 23.1 4 Norte 8 Nordeste 0 953.7 2.3 75
2019-08-21 23:00:00 24.5 0 Calma 15 Sur 0 953.2 2.6 69
2019-08-21 22:00:00 25.5 4 Sur 24 Sur 0 952.3 2.2 65
2019-08-21 21:00:00 27 18 Sur 26 Sur 0 951.4 1.5 60
2019-08-21 20:00:00 29.7 19 Sudoeste 32 Sudoeste 0 950.6 0.6 51
2019-08-21 19:00:00 31.8 19 Sudoeste 32 Oeste 0 950.1 -0.4 43
2019-08-21 18:00:00 33.4 14 Sudoeste 32 Sudoeste 0 949.9 -1.3 36
2019-08-21 17:00:00 33.7 9 Sudoeste 21 Sudoeste 0 950 -1.8 33
2019-08-21 16:00:00 32.9 5 Noroeste 18 Oeste 0 950.5 -1.9 36
2019-08-21 15:00:00 32 10 Oeste 18 Noroeste 0 951.2 -1.9 39
2019-08-21 14:00:00 30.6 5 Noroeste 17 Nordeste 0 951.8 -1 42
2019-08-21 13:00:00 29.9 4 Este 17 Oeste 0 952.4 -0.5 47
2019-08-21 12:00:00 28 5 Noroeste 15 Oeste 0 953.1 0.1 53
2019-08-21 11:00:00 26.8 0 Calma 5 Noroeste 0 952.8 0.1 59
2019-08-21 10:00:00 24.6 0 Calma 2 Noroeste 0 952.9 0.7 65
2019-08-21 09:00:00 21 0 Calma 2 Norte 0 953 0.8 75
2019-08-21 08:00:00 18.8 0 Calma 8 Sudoeste 0 952.7 0.5 83
2019-08-21 07:00:00 19.3 5 Sur 8 Sur 0 952.2 0 82
2019-08-21 06:00:00 19.8 0 Calma 2 Noroeste 0 952.2 -0.2 78
2019-08-21 05:00:00 22.1 2 Este 17 Sudeste 0 952.2 -0.1 74
2019-08-21 04:00:00 22.3 8 Este 21 Este 0 952.2 0 76
2019-08-21 03:00:00 23.7 4 Sudeste 18 Sudoeste 0 952.4 0.6 71
2019-08-21 02:00:00 24.6 8 Sudoeste 18 Sur 0 952.3 1.1 65
2019-08-21 01:00:00 24.2 0 Calma 17 Oeste 0 952.2 1.8 63
2019-08-21 00:00:00 24.7 2 Sudoeste 9 Sudoeste 0 951.8 2.3 47
2019-08-20 23:00:00 26 5 Sur 21 Sur 0 951.2 2 44
2019-08-20 22:00:00 29.1 9 Sur 24 Sur 0 950.4 1.3 31
2019-08-20 21:00:00 30.5 9 Sur 18 Sudoeste 0 949.5 0.5 20
2019-08-20 20:00:00 33.9 14 Oeste 24 Oeste 0 949.2 -0.1 15
2019-08-20 19:00:00 34.8 18 Oeste 26 Sudoeste 0 949.1 -0.6 15
2019-08-20 18:00:00 35.3 14 Sudoeste 26 Oeste 0 949 -1.2 16
2019-08-20 17:00:00 34.8 12 Oeste 32 Oeste 0 949.3 -1.2 19
2019-08-20 16:00:00 34 14 Noroeste 28 Noroeste 0 949.7 -1.3 21
2019-08-20 15:00:00 33.7 14 Oeste 30 Noroeste 0 950.2 -1.2 26
2019-08-20 14:00:00 32.3 10 Oeste 21 Noroeste 0 950.5 -0.7 26
2019-08-20 13:00:00 30.8 6 Oeste 15 Oeste 0 951 0 29
2019-08-20 12:00:00 28.2 0 Calma 8 Norte 0 951.4 0.4 32
2019-08-20 11:00:00 24.5 0 Calma 5 Noroeste 0 951.2 0.5 42
2019-08-20 10:00:00 21.6 0 Calma 5 Noroeste 0 951 0.9 52
2019-08-20 09:00:00 18 4 Noroeste 8 Noroeste 0 951 1.2 64
2019-08-20 08:00:00 15 3 Sudeste 5 Sudeste 0 950.7 0.8 66
2019-08-20 07:00:00 15.4 0 Calma 5 Sudoeste 0 950.1 0 66
2019-08-20 06:00:00 16.7 3 Sudoeste 8 Sur 0 949.8 -0.5 60
2019-08-20 05:00:00 18.5 0 Calma 2 Oeste 0 949.9 -0.7 55
2019-08-20 04:00:00 19.3 2 Oeste 8 Sudoeste 0 950.1 -0.4 54
2019-08-20 03:00:00 21.7 4 Sudeste 9 Oeste 0 950.3 0 49
2019-08-20 02:00:00 22.9 0 Calma 17 Sudoeste 0 950.6 0.6 48
2019-08-20 01:00:00 24.7 9 Sudoeste 18 Oeste 0 950.5 1.5 42
2019-08-20 00:00:00 25.3 8 Oeste 15 Oeste 0 950.3 1.8 40
2019-08-19 23:00:00 26.2 0 Calma 18 Sudoeste 0 950 1.9 37
2019-08-19 22:00:00 27.8 10 Sudoeste 15 Sudoeste 0 949 1 33
2019-08-19 21:00:00 30.9 12 Oeste 28 Oeste 0 948.5 0.6 27
2019-08-19 20:00:00 33.8 18 Oeste 33 Oeste 0 948.1 0 23
2019-08-19 19:00:00 35 21 Oeste 32 Oeste 0 948 -0.5 21
2019-08-19 18:00:00 35.6 22 Oeste 32 Oeste 0 947.9 -1.2 20
2019-08-19 17:00:00 36.4 23 Oeste 37 Oeste 0 948.1 -1.5 19
2019-08-19 16:00:00 36 15 Oeste 28 Noroeste 0 948.5 -1.9 18
2019-08-19 15:00:00 35.7 5 Oeste 21 Oeste 0 949.1 -1.7 16
2019-08-19 14:00:00 33.2 5 Norte 15 Noroeste 0 949.6 -1.4 24
2019-08-19 13:00:00 31.2 4 Oeste 15 Oeste 0 950.4 -0.5 29
2019-08-19 12:00:00 28.2 4 Norte 15 Noroeste 0 950.8 0.1 36
2019-08-19 11:00:00 25 2 Noroeste 8 Noroeste 0 951 0.7 43
2019-08-19 10:00:00 21.8 4 Noroeste 8 Oeste 4.1 950.9 0.9 53
2019-08-19 09:00:00 18 0 Calma 11 Noroeste 0 950.7 0.7 64
2019-08-19 08:00:00 15.9 0 Calma 5 Sudoeste 0 950.3 0 64
2019-08-19 07:00:00 15.3 2 Oeste 5 Oeste 0 950 -0.5 66
2019-08-19 06:00:00 17.2 0 Calma 5 Sur 0 950 -0.5 58
2019-08-19 05:00:00 18.8 5 Sur 8 Sur 0 950.3 -0.4 53
2019-08-19 04:00:00 19.8 0 Calma 5 Oeste 0 950.5 -0.2 53
2019-08-19 03:00:00 20.5 3 Oeste 8 Sudoeste 0 950.5 0.1 54
2019-08-19 02:00:00 21.9 5 Sudoeste 8 Oeste 0 950.7 0.8 50
2019-08-19 01:00:00 23.6 0 Calma 11 Oeste 0 950.7 1.6 47
2019-08-19 00:00:00 26.1 2 Sudoeste 18 Sudoeste 0 950.4 2.2 40
2019-08-18 23:00:00 27.6 13 Sudoeste 18 Sudoeste 0 949.9 2.2 37
2019-08-18 22:00:00 29.5 11 Oeste 26 Oeste 0 949.1 1.6 35
2019-08-18 21:00:00 31.7 19 Oeste 32 Oeste 0 948.2 0.7 29
2019-08-18 20:00:00 33.9 22 Oeste 39 Oeste 0 947.7 -0.1 24
2019-08-18 19:00:00 35.6 23 Oeste 35 Oeste 0 947.5 -0.6 22
2019-08-18 18:00:00 36.6 21 Oeste 35 Oeste 0 947.5 -0.9 20
2019-08-18 17:00:00 36.7 19 Oeste 35 Oeste 0 947.8 -1.1 20
2019-08-18 16:00:00 36 18 Oeste 32 Noroeste 0 948.1 -1.4 22
2019-08-18 15:00:00 37 12 Oeste 32 Oeste 0 948.4 -1.5 17
2019-08-18 14:00:00 35.2 14 Noroeste 24 Noroeste 0 948.9 -1 21
2019-08-18 13:00:00 33.3 4 Noroeste 13 Noroeste 0 949.5 -0.2 24
2019-08-18 12:00:00 29.7 0 Calma 8 Norte 0 949.9 0.6 29
2019-08-18 11:00:00 25.4 3 Norte 8 Norte 0 949.9 0.6 39
2019-08-18 10:00:00 22.4 2 Noroeste 11 Sur 0 949.7 0.6 44
2019-08-18 09:00:00 19.9 4 Sudoeste 11 Sudoeste 0 949.3 0.3 45
2019-08-18 08:00:00 15.2 0 Calma 8 Sudoeste 0 949.3 0.1 59
2019-08-18 07:00:00 16.3 5 Sudoeste 8 Sudoeste 0 949.1 -0.6 49
2019-08-18 06:00:00 16.4 0 Calma 4 Sudoeste 0 949 -1 50
2019-08-18 05:00:00 17.3 2 Sudoeste 8 Sur 0 949.2 -1.2 48
2019-08-18 04:00:00 18.1 0 Calma 5 Sur 0 949.7 -0.5 47
2019-08-18 03:00:00 19.7 3 Sudeste 5 Sudeste 0 950 0.1 41
2019-08-18 02:00:00 20.6 0 Calma 8 Sur 0 950.4 1 39
2019-08-18 01:00:00 22.9 3 Sur 9 Sur 0 950.2 1.4 38
2019-08-18 00:00:00 24.6 0 Calma 8 Sudoeste 0 949.9 1.5 37
2019-08-17 23:00:00 27.1 0 Calma 13 Norte 0 949.4 1.4 36
2019-08-17 22:00:00 28.8 4 Norte 18 Sudoeste 0 948.8 0.9 32
2019-08-17 21:00:00 32.6 10 Sudoeste 30 Sudoeste 0 948.4 0.2 28
2019-08-17 20:00:00 36.3 17 Sudoeste 24 Oeste 0 948 -0.5 21
2019-08-17 19:00:00 38.4 12 Sudoeste 26 Sudoeste 0 947.9 -1.1 15
2019-08-17 18:00:00 38.7 7 Noroeste 24 Sudoeste 0 948.2 -1.5 15
2019-08-17 17:00:00 39 12 Sudoeste 32 Oeste 0 948.5 -1.9 13
2019-08-17 16:00:00 38.9 11 Sudoeste 33 Noroeste 0 949 -2.2 14
2019-08-17 15:00:00 37.2 6 Nordeste 24 Noroeste 0 949.7 -2.2 19
2019-08-17 14:00:00 35.6 4 Noroeste 13 Noroeste 0 950.4 -2 20
2019-08-17 13:00:00 33.3 5 Noroeste 11 Norte 0 951.2 -1.4 23
2019-08-17 12:00:00 30.6 0 Calma 8 Norte 0 951.9 -0.7 27
2019-08-17 11:00:00 26.8 0 Calma 5 Noroeste 0 952.4 0.2 33
2019-08-17 10:00:00 23.4 0 Calma 8 Sudoeste 0 952.6 0.5 41
2019-08-17 09:00:00 19.3 0 Calma 5 Sudoeste 0 952.6 0.8 47
2019-08-17 08:00:00 16.1 0 Calma 5 Sur 0 952.2 0.3 54
2019-08-17 07:00:00 16.7 2 Sur 5 Sur 0 952.1 0.1 50
2019-08-17 06:00:00 17.8 6 Sudoeste 8 Sudoeste 0 951.8 -0.3 46
2019-08-17 05:00:00 18.2 0 Calma 5 Sudoeste 0 951.9 -0.4 46
2019-08-17 04:00:00 19.2 0 Calma 5 Sudoeste 0 952 -0.6 46
2019-08-17 03:00:00 20 0 Calma 4 Sudoeste 0 952.1 -0.3 40
2019-08-17 02:00:00 21.2 0 Calma 8 Sudoeste 0 952.3 0 38
2019-08-17 01:00:00 22.2 5 Sudoeste 8 Sudoeste 0 952.6 1.1 38
2019-08-17 00:00:00 23.7 0 Calma 5 Oeste 0 952.4 1.6 37
2019-08-16 23:00:00 26.9 6 Oeste 13 Norte 0 952.3 2.1 30
2019-08-16 22:00:00 29 4 Este 22 Sudoeste 0 951.5 1.6 27
2019-08-16 21:00:00 32.3 13 Sur 26 Sudoeste 0 950.8 0.8 22
2019-08-16 20:00:00 35.1 16 Sudoeste 39 Sur 0 950.2 -0.2 19
2019-08-16 19:00:00 36.9 17 Sur 35 Sudeste 0 949.9 -1 19
2019-08-16 18:00:00 38.1 17 Sur 41 Sudeste 0 950 -1.4 17
2019-08-16 17:00:00 37.3 10 Noroeste 24 Oeste 0 950.4 -1.6 20
2019-08-16 16:00:00 36.9 17 Oeste 26 Oeste 0 950.9 -1.8 21
2019-08-16 15:00:00 36.4 6 Noroeste 17 Noroeste 0 951.4 -1.9 21
2019-08-16 14:00:00 35.6 3 Oeste 13 Noroeste 0 952 -1.4 21
2019-08-16 13:00:00 33 3 Norte 13 Norte 0 952.7 -0.8 27
2019-08-16 12:00:00 30.4 4 Norte 9 Norte 0 953.3 -0.2 32
2019-08-16 11:00:00 27.1 0 Calma 9 Sudoeste 0 953.4 0.2 34
2019-08-16 10:00:00 23.4 0 Calma 4 Noroeste 0 953.5 0.8 43
2019-08-16 09:00:00 19.7 0 Calma 8 Oeste 0 953.5 0.8 54
2019-08-16 08:00:00 17.6 4 Sudoeste 8 Sudoeste 0 953.2 0.2 55
2019-08-16 07:00:00 17.5 0 Calma 2 Oeste 0 952.7 -0.3 55
2019-08-16 06:00:00 17.4 0 Calma -- -- 0 952.7 -0.4 56
2019-08-16 05:00:00 18.5 3 Sudoeste 5 Sudoeste 0 953 -0.2 56
2019-08-16 04:00:00 19.9 0 Calma 5 Este 0 953 0 44
2019-08-16 03:00:00 21.2 0 Calma 9 Sudoeste 0 953.1 0.3 36
2019-08-16 02:00:00 21.8 6 Sudoeste 17 Oeste 0 953.2 0.5 35
2019-08-16 01:00:00 23.1 4 Sudoeste 8 Oeste 0 953 1.1 38
2019-08-16 00:00:00 24.7 2 Sudoeste 8 Oeste 0 952.8 1.3 36
2019-08-15 23:00:00 27.9 2 Noroeste 15 Norte 0 952.7 1.9 24
2019-08-15 22:00:00 29.3 10 Sur 17 Sur 0 951.9 1.6 19
2019-08-15 21:00:00 31.8 13 Sudoeste 28 Sudoeste 0 951.5 1 24
2019-08-15 20:00:00 34.4 17 Sudoeste 39 Sur 0 950.8 0 24
2019-08-15 19:00:00 36.2 21 Sudeste 35 Sudeste 0 950.3 -0.9 20
2019-08-15 18:00:00 37.5 9 Sudoeste 24 Noroeste 0 950.5 -1.3 18
2019-08-15 17:00:00 36.5 8 Oeste 21 Oeste 0 950.8 -1.5 21
2019-08-15 16:00:00 36.4 14 Oeste 26 Oeste 0 951.2 -1.8 21
2019-08-15 15:00:00 35.3 8 Oeste 22 Norte 0 951.8 -1.8 24
2019-08-15 14:00:00 34.4 6 Noroeste 17 Norte 0 952.3 -1.5 25
2019-08-15 13:00:00 32.7 5 Noroeste 11 Noroeste 0 953 -0.9 28
2019-08-15 12:00:00 30 0 Calma 8 Norte 0 953.6 -0.2 33
2019-08-15 11:00:00 27.4 0 Calma 5 Oeste 0 953.8 0.1 38
2019-08-15 10:00:00 23.6 2 Oeste 8 Noroeste 0 953.9 0.7 46
2019-08-15 09:00:00 20 0 Calma -- -- 0 953.8 0.7 58
2019-08-15 08:00:00 17.4 0 Calma 4 Norte 0 953.7 0.7 62
2019-08-15 07:00:00 17.6 4 Sur 5 Sur 0 953.2 0.2 59
2019-08-15 06:00:00 17.9 0 Calma 4 Sudoeste 0 953.1 0 61
2019-08-15 05:00:00 18.7 4 Oeste 5 Oeste 0 953 -0.4 55
2019-08-15 04:00:00 19.5 3 Sudoeste 5 Sudoeste 0 953 -0.5 53
2019-08-15 03:00:00 20.3 3 Sur 8 Sur 0 953.1 -0.2 54
2019-08-15 02:00:00 21.8 4 Oeste 5 Oeste 0 953.4 0.4 52
2019-08-15 01:00:00 22.7 3 Sudoeste 5 Sudoeste 0 953.5 1.3 53
2019-08-15 00:00:00 24.6 0 Calma 11 Sur 0 953.3 1.9 48
2019-08-14 23:00:00 27.3 7 Sur 21 Sudeste 0 953 2 39
2019-08-14 22:00:00 29 8 Sur 22 Sudeste 0 952.2 1.1 38
2019-08-14 21:00:00 31.3 15 Sur 28 Sur 0 951.4 0.2 35
2019-08-14 20:00:00 34.2 9 Sur 21 Oeste 0 951 -0.6 30
2019-08-14 19:00:00 35.6 5 Sudoeste 21 Sudoeste 0 951.1 -0.9 23
2019-08-14 18:00:00 35.7 9 Oeste 24 Oeste 0 951.2 -1.6 23
2019-08-14 17:00:00 35.2 8 Noroeste 21 Oeste 0 951.6 -1.9 22
2019-08-14 16:00:00 34.5 12 Oeste 22 Noroeste 0 952 -2 25
2019-08-14 15:00:00 33.3 8 Norte 17 Norte 0 952.8 -1.7 30
2019-08-14 14:00:00 32.3 3 Norte 15 Norte 0 953.5 -1.2 27
2019-08-14 13:00:00 29.6 3 Norte 13 Norte 0 954 -0.8 44
2019-08-14 12:00:00 27.8 0 Calma 13 Nordeste 0 954.5 -0.2 53
2019-08-14 11:00:00 25.1 0 Calma 8 Nordeste 0 954.7 0.2 65
2019-08-14 10:00:00 23.6 0 Calma 5 Norte 0 954.8 0.8 70
2019-08-14 09:00:00 20.4 0 Calma 5 Sudoeste 0 954.7 0.8 77
2019-08-14 08:00:00 17.4 0 Calma 2 Noroeste 0 954.5 0.7 87
2019-08-14 07:00:00 17.3 0 Calma -- -- 0 954 0.1 86
2019-08-14 06:00:00 18.3 0 Calma 5 Sur 0 953.9 0 83
2019-08-14 05:00:00 18.8 0 Calma -- -- 0 953.8 -0.1 81
2019-08-14 04:00:00 19.3 0 Calma 8 Sudeste 0 953.9 0.4 80
2019-08-14 03:00:00 20 0 Calma 8 Oeste 0 953.9 0.6 76
2019-08-14 02:00:00 20.9 2 Oeste 5 Oeste 0 953.9 1 75
2019-08-14 01:00:00 22.2 0 Calma 13 Norte 0 953.5 1.4 71
2019-08-14 00:00:00 23.6 8 Norte 18 Sur 0 953.3 1.9 69
2019-08-13 23:00:00 25 2 Sur 28 Sur 0 952.9 2.3 62
2019-08-13 22:00:00 26.4 7 Sur 26 Sur 0 952.1 2 57
2019-08-13 21:00:00 27.9 18 Sudoeste 32 Sudoeste 0 951.4 1.1 53
2019-08-13 20:00:00 30.9 19 Sudoeste 46 Sur 0 950.6 0 43
2019-08-13 19:00:00 34.4 5 Sudoeste 26 Oeste 0 950.1 -1.1 16
2019-08-13 18:00:00 34.4 3 Sur 18 Noroeste 0 950.3 -1.4 17
2019-08-13 17:00:00 33.4 0 Calma 17 Norte 0 950.6 -1.5 17
2019-08-13 16:00:00 33.2 4 Norte 21 Norte 0 951.2 -1.2 17
2019-08-13 15:00:00 32.9 8 Noroeste 21 Norte 0 951.7 -0.9 19
2019-08-13 14:00:00 31 4 Norte 17 Norte 0 952.1 -0.6 29
2019-08-13 13:00:00 28.8 9 Noroeste 18 Noroeste 0 952.4 -0.4 38
2019-08-13 12:00:00 27.1 4 Norte 13 Norte 0 952.6 0 42
2019-08-13 11:00:00 25.1 0 Calma 4 Norte 0 952.7 0.7 44
2019-08-13 10:00:00 20.3 0 Calma 4 Norte 0 952.8 1.3 44
2019-08-13 09:00:00 16.5 0 Calma 5 Sur 0 952.6 1.1 50
2019-08-13 08:00:00 14.5 3 Sudoeste 8 Sudoeste 0 952 0.4 53
2019-08-13 07:00:00 13.9 4 Sudoeste 5 Sudoeste 0 951.5 0.2 47
2019-08-13 06:00:00 15.1 4 Norte 11 Sur 0 951.5 0.2 48
2019-08-13 05:00:00 17.1 3 Sudoeste 8 Sur 0 951.6 -0.1 34
2019-08-13 04:00:00 15.6 0 Calma 8 Oeste 0 951.3 -0.3 40
2019-08-13 03:00:00 16.1 3 Oeste 8 Sur 0 951.3 0 36
2019-08-13 02:00:00 17.8 4 Sudoeste 13 Sur 0 951.7 0.7 36
2019-08-13 01:00:00 19 3 Nordeste 13 Norte 0 951.6 1.9 31
2019-08-13 00:00:00 20.3 4 Oeste 17 Sudoeste 0 951.3 2.2 25
2019-08-12 23:00:00 22.6 14 Sudoeste 18 Sudoeste 0 951 2.9 20
2019-08-12 22:00:00 25.1 0 Calma 13 Oeste 0 949.7 1.7 19
2019-08-12 21:00:00 28.2 7 Oeste 21 Noroeste 0 949.1 0.8 17
2019-08-12 20:00:00 32 13 Oeste 18 Oeste 0 948.1 -0.7 12
2019-08-12 19:00:00 32.9 11 Oeste 22 Oeste 0 948 -1.6 13
2019-08-12 18:00:00 32.8 5 Oeste 17 Oeste 0 948.3 -1.9 8
2019-08-12 17:00:00 32.6 6 Oeste 18 Oeste 0 948.8 -2 11
2019-08-12 16:00:00 32.4 5 Oeste 17 Norte 0 949.6 -1.5 15
2019-08-12 15:00:00 29.6 6 Noroeste 15 Noroeste 0 950.2 -1.3 19
2019-08-12 14:00:00 28.5 5 Noroeste 17 Noroeste 0 950.8 -0.4 21
2019-08-12 13:00:00 27.3 2 Noroeste 18 Sudoeste 0 951.1 0 22
2019-08-12 12:00:00 25.1 10 Oeste 18 Oeste 0 951.5 0.5 27
2019-08-12 11:00:00 22.8 8 Oeste 13 Oeste 0 951.2 0.5 32
2019-08-12 10:00:00 22 3 Sudoeste 13 Sudoeste 0 951.1 0.7 30
2019-08-12 09:00:00 17.4 0 Calma 5 Norte 0 951 0.4 44
2019-08-12 08:00:00 14.4 0 Calma 8 Sudoeste 0 950.7 0.1 46
2019-08-12 07:00:00 14.4 6 Sudoeste 8 Sudoeste 0 950.4 -0.3 43
2019-08-12 06:00:00 15.7 2 Oeste 4 Sudoeste 0 950.6 -0.5 43
2019-08-12 05:00:00 16.8 0 Calma 8 Sudoeste 0 950.6 -0.9 40
2019-08-12 04:00:00 18.4 0 Calma 17 Sudoeste 0 950.7 -0.7 35
2019-08-12 03:00:00 20.5 10 Sudoeste 15 Sudoeste 0 951.1 -0.2 30
2019-08-12 02:00:00 21.3 10 Sudoeste 15 Sudoeste 0 951.5 0.1 31
2019-08-12 01:00:00 20.9 3 Sur 13 Nordeste 0 951.4 0.8 36
2019-08-12 00:00:00 22.8 9 Sur 17 Sudoeste 0 951.3 1.1 31
2019-08-11 23:00:00 23.8 8 Sudoeste 22 Oeste 0 951.4 1.8 30
2019-08-11 22:00:00 25.3 8 Sudoeste 28 Oeste 0 950.6 1.3 27
2019-08-11 21:00:00 27.6 18 Oeste 30 Oeste 0 950.2 0.8 22
2019-08-11 20:00:00 30.8 19 Oeste 33 Oeste 0 949.6 -0.1 17
2019-08-11 19:00:00 32.2 23 Oeste 35 Oeste 0 949.3 -0.6 20
2019-08-11 18:00:00 33.6 10 Noroeste 33 Oeste 0 949.4 -0.9 20
2019-08-11 17:00:00 33.5 17 Noroeste 54 Oeste 0 949.7 -1.2 23
2019-08-11 16:00:00 34 28 Oeste 41 Oeste 0 949.9 -1.7 23
2019-08-11 15:00:00 33.8 22 Oeste 32 Oeste 0 950.3 -1.6 21
2019-08-11 14:00:00 32.8 10 Oeste 21 Oeste 0 950.9 -1.1 18
2019-08-11 13:00:00 30.5 3 Noroeste 15 Oeste 0 951.6 -0.4 29
2019-08-11 12:00:00 28.2 5 Oeste 17 Oeste 0 951.9 -0.2 39
2019-08-11 11:00:00 26.7 0 Calma 11 Noroeste 0 952 0.2 38
2019-08-11 10:00:00 24 3 Oeste 13 Oeste 0 952 0.7 43
2019-08-11 09:00:00 21.9 0 Calma 13 Sudoeste 0 952.1 1.1 50
2019-08-11 08:00:00 20.4 9 Sudoeste 15 Sudoeste 0 951.8 0.9 51
2019-08-11 07:00:00 20.2 4 Oeste 15 Oeste 0 951.3 0.5 53
2019-08-11 06:00:00 21.4 6 Noroeste 22 Oeste 0 951 0 59
2019-08-11 05:00:00 23 13 Sudoeste 22 Sudoeste 0 950.9 -0.4 59
2019-08-11 04:00:00 24 13 Sudoeste 18 Sudoeste 0 950.8 -0.6 54
2019-08-11 03:00:00 25.1 12 Sudoeste 18 Sudoeste 0 951 -0.4 50
2019-08-11 02:00:00 25.9 16 Oeste 22 Oeste 0 951.3 0 48
2019-08-11 01:00:00 26.6 12 Oeste 22 Sudoeste 0 951.4 0.9 45
2019-08-11 00:00:00 27.8 13 Sudoeste 18 Oeste 0 951.4 1.5 44
2019-08-10 23:00:00 29.1 7 Sudoeste 24 Oeste 0 951.3 1.7 40
2019-08-10 22:00:00 30.4 14 Sudoeste 21 Sudoeste 0 950.5 0.8 36
2019-08-10 21:00:00 32.7 14 Oeste 24 Oeste 0 949.9 -0.2 30
2019-08-10 20:00:00 35.2 17 Oeste 22 Oeste 0 949.6 -1 28
2019-08-10 19:00:00 35.9 13 Oeste 24 Oeste 0 949.7 -1.6 29
2019-08-10 18:00:00 36.3 15 Noroeste 26 Oeste 0 950.1 -1.9 28
2019-08-10 17:00:00 36.7 14 Oeste 24 Oeste 0 950.6 -2.1 26
2019-08-10 16:00:00 36.1 7 Oeste 24 Oeste 0 951.3 -2 26
2019-08-10 15:00:00 35.4 9 Sudoeste 18 Sudoeste 0 952 -1.9 28
2019-08-10 14:00:00 33.2 3 Sur 15 Oeste 0 952.7 -1.3 35
2019-08-10 13:00:00 30.5 0 Calma 11 Noroeste 0 953.3 -0.6 44
2019-08-10 12:00:00 28 2 Norte 9 Norte 0 953.9 0.2 50
2019-08-10 11:00:00 26.1 0 Calma 11 Oeste 0 954 0.5 55
2019-08-10 10:00:00 22.5 3 Noroeste 11 Noroeste 0 953.9 0.6 59
2019-08-10 09:00:00 20 0 Calma 5 Norte 0 953.7 0.8 64
2019-08-10 08:00:00 17.2 0 Calma 4 Oeste 0 953.5 0.3 79
2019-08-10 07:00:00 18.2 4 Sudoeste 5 Oeste 0 953.3 0.1 76
2019-08-10 06:00:00 19.1 3 Sudoeste 5 Sudoeste 0 952.9 -0.1 74
2019-08-10 05:00:00 20.8 3 Sudeste 11 Sudoeste 0 953.2 0 68
2019-08-10 04:00:00 20.9 0 Calma 8 Sudoeste 0 953.2 0.3 60
2019-08-10 03:00:00 22.4 0 Calma 8 Sudoeste 0 953 0.5 55
2019-08-10 02:00:00 22.2 0 Calma 11 Sudoeste 0 953.2 1 54
2019-08-10 01:00:00 24.4 3 Oeste 15 Sudoeste 0 952.9 1.5 44
2019-08-10 00:00:00 25.7 11 Sudoeste 15 Sudoeste 0 952.5 1.7 40
2019-08-09 23:00:00 27.3 6 Oeste 21 Oeste 0 952.2 1.9 36
2019-08-09 22:00:00 29 11 Oeste 22 Oeste 0 951.4 1.1 35
2019-08-09 21:00:00 31.5 17 Oeste 28 Oeste 0 950.8 0.5 29
2019-08-09 20:00:00 33.9 19 Oeste 32 Oeste 0 950.3 -0.4 23
2019-08-09 19:00:00 35.4 23 Oeste 33 Oeste 0 950.3 -0.8 16
2019-08-09 18:00:00 36.3 19 Oeste 32 Oeste 0 950.3 -1.2 14
2019-08-09 17:00:00 36.7 19 Oeste 30 Oeste 0 950.7 -1.4 14
2019-08-09 16:00:00 36.2 17 Oeste 28 Oeste 0 951.1 -1.3 16
2019-08-09 15:00:00 35.5 15 Oeste 28 Oeste 0 951.5 -1.1 14
2019-08-09 14:00:00 33.9 13 Oeste 24 Noroeste 0 952.1 -0.6 19
2019-08-09 13:00:00 31.7 9 Oeste 18 Oeste 0 952.4 -0.3 22
2019-08-09 12:00:00 28.6 2 Norte 8 Noroeste 0 952.6 0 32
2019-08-09 11:00:00 25.7 0 Calma 5 Noroeste 0 952.7 0.3 39
2019-08-09 10:00:00 22 0 Calma 4 Norte 0 952.7 0.7 48
2019-08-09 09:00:00 18.6 0 Calma 2 Oeste 0 952.6 0.9 55
2019-08-09 08:00:00 15.5 0 Calma 2 Sudoeste 0 952.4 0.8 60
2019-08-09 07:00:00 15.7 0 Calma 4 Sudoeste 0 952 0.5 60
2019-08-09 06:00:00 17 0 Calma 8 Sur 0 951.7 0.4 57
2019-08-09 05:00:00 18.7 4 Sur 5 Sur 0 951.6 0.7 51
2019-08-09 04:00:00 19.1 0 Calma 5 Oeste 0 951.5 0.9 51
2019-08-09 03:00:00 21.1 0 Calma 8 Oeste 0 951.3 1.1 50
2019-08-09 02:00:00 24.3 0 Calma 8 Noroeste 0 950.9 1 32
2019-08-09 01:00:00 25.1 3 Oeste 18 Sudoeste 0 950.6 1.4 31
2019-08-09 00:00:00 26.4 13 Sudoeste 17 Sudoeste 0 950.2 1.6 28
2019-08-08 23:00:00 28.5 12 Sudoeste 26 Sudoeste 0 949.9 1.6 26
2019-08-08 22:00:00 30 13 Sudoeste 18 Oeste 0 949.2 1 28
2019-08-08 21:00:00 33.4 8 Oeste 24 Oeste 0 948.6 0.5 24
2019-08-08 20:00:00 36.1 14 Oeste 26 Oeste 0 948.3 0 19
2019-08-08 19:00:00 37.2 15 Oeste 30 Oeste 0 948.2 -0.7 18
2019-08-08 18:00:00 38.2 16 Oeste 26 Noroeste 0 948.1 -1.2 17
2019-08-08 17:00:00 38.7 7 Oeste 24 Noroeste 0 948.3 -1.6 15
2019-08-08 16:00:00 37.6 13 Noroeste 22 Noroeste 0 948.9 -1.6 17
2019-08-08 15:00:00 36.1 6 Oeste 15 Noroeste 0 949.3 -1.5 20
2019-08-08 14:00:00 33.6 4 Oeste 15 Noroeste 0 949.9 -1.1 23
2019-08-08 13:00:00 31.9 0 Calma 11 Noroeste 0 950.5 -0.3 28
2019-08-08 12:00:00 29.6 0 Calma 8 Sudoeste 0 950.8 0.1 30
2019-08-08 11:00:00 26.3 0 Calma 5 Sudoeste 0 951 0.4 38
2019-08-08 10:00:00 22.8 0 Calma 4 Oeste 0 950.8 0.4 45
2019-08-08 09:00:00 18.4 3 Oeste 8 Sur 0 950.7 0.4 60
2019-08-08 08:00:00 15.6 0 Calma 4 Sur 0 950.6 0.6 66
2019-08-08 07:00:00 15.9 2 Sudoeste 5 Sur 0 950.4 0.4 64
2019-08-08 06:00:00 16.7 2 Sur 8 Sur 0 950.3 0 58
2019-08-08 05:00:00 16.8 2 Oeste 5 Oeste 0 950 -0.3 59
2019-08-08 04:00:00 18.2 0 Calma 11 Sur 0 950 -0.3 57
2019-08-08 03:00:00 19.3 4 Sur 8 Sudoeste 0 950.3 0.2 44
2019-08-08 02:00:00 21.1 0 Calma 5 Sur 0 950.3 0.6 39
2019-08-08 01:00:00 21.8 4 Sudeste 8 Sudeste 0 950.3 1.4 37
2019-08-08 00:00:00 24.2 0 Calma 18 Sudoeste 0 950.1 1.5 34
2019-08-07 23:00:00 24.9 8 Sudoeste 13 Sudoeste 0 949.7 1.2 32
2019-08-07 22:00:00 27.5 10 Sudoeste 21 Oeste 0 948.9 0.6 27
2019-08-07 21:00:00 29.2 14 Oeste 26 Oeste 0 948.6 0.5 27
2019-08-07 20:00:00 31 18 Oeste 33 Oeste 0 948.5 0.6 26
2019-08-07 19:00:00 32.7 24 Oeste 33 Oeste 0 948.3 0 23
2019-08-07 18:00:00 34.1 19 Oeste 32 Oeste 0 948.1 -0.6 18
2019-08-07 17:00:00 35.1 19 Oeste 30 Oeste 0 947.9 -1.4 14
2019-08-07 16:00:00 36.2 16 Oeste 28 Noroeste 0 948.3 -1.3 13
2019-08-07 15:00:00 35.7 6 Oeste 22 Oeste 0 948.7 -1.3 12
2019-08-07 14:00:00 33.5 5 Oeste 13 Noroeste 0 949.3 -0.6 15
2019-08-07 13:00:00 31.7 2 Noroeste 11 Noroeste 0 949.6 -0.2 15
2019-08-07 12:00:00 28.9 0 Calma 9 Noroeste 0 950 0.6 24
2019-08-07 11:00:00 25.6 2 Norte 11 Norte 0 949.9 0.9 31
2019-08-07 10:00:00 21.6 0 Calma 5 Noroeste 0 949.8 1.3 44
2019-08-07 09:00:00 18.3 2 Sudoeste 5 Sur 0 949.4 0.9 49
2019-08-07 08:00:00 16.1 0 Calma 4 Oeste 0 949 0.6 53
2019-08-07 07:00:00 16.6 0 Calma 4 Oeste 0 948.5 0.2 50
2019-08-07 06:00:00 17.6 0 Calma 4 Sur 0 948.5 0 46
2019-08-07 05:00:00 19.3 3 Sudoeste 5 Oeste 0 948.4 -0.4 39
2019-08-07 04:00:00 19.7 3 Noroeste 8 Sudoeste 0 948.3 -0.7 39
2019-08-07 03:00:00 22.1 8 Sur 11 Sur 0 948.5 -0.3 31
2019-08-07 02:00:00 23.6 2 Noroeste 21 Sudoeste 0 948.8 0.5 30
2019-08-07 01:00:00 26 3 Sudoeste 24 Sudoeste 0 949 1.7 24
2019-08-07 00:00:00 28 18 Sudoeste 24 Sudoeste 0 948.8 2.3 21
2019-08-06 23:00:00 28.8 14 Sudoeste 22 Sudoeste 0 948.3 2.3 21
2019-08-06 22:00:00 30.4 12 Sudoeste 22 Oeste 0 947.3 1.4 19
2019-08-06 21:00:00 33.6 14 Oeste 24 Oeste 0 946.5 0.4 18
2019-08-06 20:00:00 36.2 14 Oeste 28 Oeste 0 946 -0.6 17
2019-08-06 19:00:00 37.8 16 Oeste 28 Oeste 0 945.9 -1.3 18
2019-08-06 18:00:00 38.7 17 Oeste 28 Oeste 0 946.1 -1.9 17
2019-08-06 17:00:00 38.9 14 Oeste 26 Noroeste 0 946.6 -2.2 18
2019-08-06 16:00:00 38.5 7 Oeste 21 Noroeste 0 947.2 -2.3 15
2019-08-06 15:00:00 36.9 6 Noroeste 22 Oeste 0 948 -1.8 21
2019-08-06 14:00:00 35.6 9 Norte 18 Nordeste 0 948.8 -1.4 24
2019-08-06 13:00:00 33.2 7 Noroeste 15 Norte 0 949.5 -0.8 26
2019-08-06 12:00:00 30.9 2 Norte 5 Nordeste 0 949.8 -0.5 27
2019-08-06 11:00:00 27.5 0 Calma 5 Norte 0 950.2 -0.2 35
2019-08-06 10:00:00 23.6 0 Calma 8 Norte 0 950.3 0 46
2019-08-06 09:00:00 20 0 Calma 8 Sudoeste 0 950.3 0.2 56
2019-08-06 08:00:00 17 2 Sudoeste 11 Sudoeste 0 950.4 0.3 60
2019-08-06 07:00:00 17.8 2 Sudoeste 4 Sudoeste 0 950.3 0.2 55
2019-08-06 06:00:00 18.8 3 Sur 8 Sur 0 950.1 0 50
2019-08-06 05:00:00 19.8 5 Sudeste 8 Sudeste 0 950.1 -0.1 48
2019-08-06 04:00:00 21.7 0 Calma 15 Oeste 0 950.1 0 43
2019-08-06 03:00:00 23.2 0 Calma 11 Oeste 0 950.1 0.3 39
2019-08-06 02:00:00 25.9 0 Calma 15 Oeste 0 950.2 1 33
2019-08-06 01:00:00 26.8 6 Noroeste 21 Oeste 0 950.1 1.7 32
2019-08-06 00:00:00 28.5 12 Oeste 22 Sudoeste 0 949.8 2.3 30
2019-08-05 23:00:00 29.3 16 Sudoeste 21 Oeste 0 949.2 2.2 32
2019-08-05 22:00:00 30.3 11 Sudoeste 17 Oeste 0 948.4 1.6 33
2019-08-05 21:00:00 33.4 12 Oeste 33 Oeste 0 947.5 0.8 29
2019-08-05 20:00:00 36.1 22 Oeste 35 Oeste 0 947 0 25
2019-08-05 19:00:00 36.8 20 Oeste 35 Oeste 0 946.8 -0.5 26
2019-08-05 18:00:00 37.8 22 Oeste 35 Noroeste 0 946.7 -1.2 24
2019-08-05 17:00:00 37.6 15 Oeste 28 Oeste 0 947 -1.4 25
2019-08-05 16:00:00 37.8 10 Oeste 26 Oeste 0 947.3 -1.9 24
2019-08-05 15:00:00 37 12 Oeste 28 Oeste 0 947.9 -2.2 26
2019-08-05 14:00:00 36 10 Noroeste 21 Noroeste 0 948.4 -2.1 28
2019-08-05 13:00:00 34 5 Noroeste 17 Norte 0 949.2 -1.5 27
2019-08-05 12:00:00 31 0 Calma 11 Norte 0 950.1 -0.6 32
2019-08-05 11:00:00 27.1 3 Norte 8 Norte 0 950.5 -0.3 41
2019-08-05 10:00:00 24.4 0 Calma 4 Noroeste 0 950.7 0.1 44
2019-08-05 09:00:00 21.1 0 Calma 5 Sudoeste 0 950.7 0.3 51
2019-08-05 08:00:00 18.2 4 Sudoeste 8 Sudoeste 0 950.8 0.2 58
2019-08-05 07:00:00 17.5 0 Calma 2 Norte 0 950.6 0.1 62
2019-08-05 06:00:00 18.9 0 Calma 5 Sudoeste 0 950.4 -0.1 54
2019-08-05 05:00:00 19.3 3 Oeste 8 Oeste 0 950.6 0 58
2019-08-05 04:00:00 20.5 0 Calma 5 Sudoeste 0 950.5 -0.2 50
2019-08-05 03:00:00 20.6 0 Calma 8 Sudoeste 0 950.5 -0.1 53
2019-08-05 02:00:00 22.1 0 Calma 11 Sudoeste 0 950.6 0.5 56
2019-08-05 01:00:00 25 6 Sudoeste 11 Sudoeste 0 950.7 1.5 39
2019-08-05 00:00:00 27.3 3 Sudeste 11 Oeste 0 950.6 2.1 35
2019-08-04 23:00:00 28.8 0 Calma 13 Sudoeste 0 950.1 2.2 33
2019-08-04 22:00:00 30.3 9 Sudoeste 24 Oeste 0 949.2 1.5 30
2019-08-04 21:00:00 32.9 15 Oeste 28 Oeste 0 948.5 0.9 27
2019-08-04 20:00:00 34.8 21 Oeste 30 Oeste 0 947.9 0.2 26
2019-08-04 19:00:00 35.6 14 Oeste 26 Noroeste 0 947.7 -0.5 27
2019-08-04 18:00:00 36.7 16 Oeste 30 Noroeste 0 947.6 -1.2 25
2019-08-04 17:00:00 37.8 16 Oeste 28 Oeste 0 947.7 -1.6 22
2019-08-04 16:00:00 36.2 12 Noroeste 28 Noroeste 0 948.2 -2 24
2019-08-04 15:00:00 35.5 11 Oeste 24 Oeste 0 948.8 -1.9 28
2019-08-04 14:00:00 34.6 0 Calma 8 Noroeste 0 949.3 -1.6 26
2019-08-04 13:00:00 32.5 2 Oeste 11 Sudoeste 0 950.2 -0.9 28
2019-08-04 12:00:00 30 0 Calma 9 Oeste 0 950.7 -0.4 34
2019-08-04 11:00:00 27.1 0 Calma 8 Norte 0 950.9 0.1 44
2019-08-04 10:00:00 24.3 0 Calma 2 Norte 0 951.1 0.5 51
2019-08-04 09:00:00 20.8 0 Calma 5 Oeste 0 951.1 0.7 61
2019-08-04 08:00:00 18.5 3 Sudoeste 5 Sudoeste 0 950.8 0.4 63
2019-08-04 07:00:00 18.8 0 Calma -- -- 0 950.6 0.2 68
2019-08-04 06:00:00 19.6 0 Calma 5 Sudoeste 0 950.4 -0.1 61
2019-08-04 05:00:00 21 4 Sudoeste 8 Sudoeste 0 950.4 0.2 54
2019-08-04 04:00:00 21.1 6 Sudeste 8 Sudeste 0 950.4 0.5 50
2019-08-04 03:00:00 23.7 0 Calma 13 Oeste 0 950.5 0.7 43
2019-08-04 02:00:00 25.2 13 Oeste 21 Oeste 0 950.2 0.9 39
2019-08-04 01:00:00 26 15 Oeste 22 Oeste 0 949.9 1.6 39
2019-08-04 00:00:00 27.3 10 Oeste 22 Oeste 0 949.8 2.5 39
2019-08-03 23:00:00 28.5 10 Oeste 21 Oeste 0 949.3 2.3 38
2019-08-03 22:00:00 30.5 11 Oeste 26 Oeste 0 948.3 1.2 33
2019-08-03 21:00:00 33.1 17 Oeste 28 Oeste 0 947.3 0 34
2019-08-03 20:00:00 34.7 19 Oeste 28 Oeste 0 947 -0.8 33
2019-08-03 19:00:00 35.3 19 Oeste 32 Oeste 0 947.1 -1.2 34
2019-08-03 18:00:00 36.4 14 Oeste 30 Oeste 0 947.3 -1.6 30
2019-08-03 17:00:00 36.5 14 Noroeste 24 Oeste 0 947.8 -1.6 28
2019-08-03 16:00:00 36.6 11 Oeste 26 Oeste 0 948.3 -1.6 26
2019-08-03 15:00:00 35.5 7 Oeste 22 Oeste 0 948.9 -1.2 28
2019-08-03 14:00:00 34.1 5 Noroeste 17 Noroeste 0 949.4 -0.8 29
2019-08-03 13:00:00 32.7 6 Oeste 13 Oeste 0 949.9 -0.5 30
2019-08-03 12:00:00 30.2 2 Noroeste 8 Norte 0 950.1 -0.4 32
2019-08-03 11:00:00 27 3 Norte 8 Norte 0 950.2 -0.3 44
2019-08-03 10:00:00 23.7 2 Noroeste 8 Oeste 0 950.4 0.3 47
2019-08-03 09:00:00 20.4 2 Oeste 5 Noroeste 0 950.5 0.7 53
2019-08-03 08:00:00 16.8 2 Sudoeste 5 Sudoeste 0 950.5 0.9 66
2019-08-03 07:00:00 18.1 0 Calma 4 Noroeste 0 950.1 0.4 57
2019-08-03 06:00:00 18.3 4 Oeste 13 Oeste 0 949.8 -0.1 59
2019-08-03 05:00:00 19 0 Calma 8 Sudoeste 0 949.6 -0.5 55
2019-08-03 04:00:00 20 0 Calma 9 Sudoeste 0 949.7 -0.4 50
2019-08-03 03:00:00 21.9 5 Sudoeste 8 Sudoeste 0 949.9 0 43
2019-08-03 02:00:00 24 3 Sudeste 5 Sudeste 0 950.1 0.7 35
2019-08-03 01:00:00 25.6 9 Sudoeste 15 Sudoeste 0 950.1 1.4 32
2019-08-03 00:00:00 25.8 5 Sur 9 Sur 0 949.9 1.9 31
2019-08-02 23:00:00 28.7 3 Sudoeste 8 Sur 0 949.4 1.8 26
2019-08-02 22:00:00 29.9 4 Sudoeste 15 Sudoeste 0 948.7 1.1 26
2019-08-02 21:00:00 33.4 12 Oeste 26 Oeste 0 948 0.2 21
2019-08-02 20:00:00 35.6 17 Oeste 28 Oeste 0 947.6 -0.4 20
2019-08-02 19:00:00 36.2 18 Oeste 28 Oeste 0 947.6 -0.8 22
2019-08-02 18:00:00 36.4 18 Oeste 30 Noroeste 0 947.8 -0.9 23
2019-08-02 17:00:00 36.8 17 Oeste 28 Oeste 0 948 -1.2 23
2019-08-02 16:00:00 36.9 18 Oeste 26 Oeste 0 948.4 -1.1 22
2019-08-02 15:00:00 35.7 13 Oeste 24 Noroeste 0 948.7 -1.2 24
2019-08-02 14:00:00 34.6 4 Norte 15 Noroeste 0 949.2 -1 28
2019-08-02 13:00:00 32.8 4 Oeste 17 Oeste 0 949.5 -0.8 35
2019-08-02 12:00:00 30.1 2 Noroeste 13 Norte 0 949.9 -0.4 39
2019-08-02 11:00:00 28 0 Calma 8 Noroeste 0 950.2 0.2 42
2019-08-02 10:00:00 24.9 0 Calma 5 Noroeste 0 950.3 0.4 53
2019-08-02 09:00:00 21 3 Noroeste 5 Noroeste 0 950.3 0.5 66
2019-08-02 08:00:00 18.2 0 Calma 2 Sudoeste 0 950 0.3 69
2019-08-02 07:00:00 18.5 0 Calma 4 Oeste 0 949.9 0.3 69
2019-08-02 06:00:00 20.4 0 Calma 4 Sudoeste 0 949.8 0.3 62
2019-08-02 05:00:00 21.6 0 Calma 5 Sur 0 949.7 0.1 58
2019-08-02 04:00:00 22.9 4 Sudoeste 17 Oeste 0 949.6 0.3 50
2019-08-02 03:00:00 24.6 13 Oeste 18 Oeste 0 949.5 0.5 46
2019-08-02 02:00:00 25.2 13 Sudoeste 18 Oeste 0 949.6 0.8 49
2019-08-02 01:00:00 25.6 12 Sudoeste 15 Sudoeste 0 949.3 1.4 49
2019-08-02 00:00:00 27.2 0 Calma 17 Sudoeste 0 949 2 47
2019-08-01 23:00:00 28.4 10 Sudoeste 22 Oeste 0 948.8 2.4 46
2019-08-01 22:00:00 30.3 15 Oeste 26 Oeste 0 947.9 1.7 41
2019-08-01 21:00:00 32.1 17 Oeste 30 Oeste 0 947 0.5 39
2019-08-01 20:00:00 34.2 21 Oeste 30 Oeste 0 946.4 -0.1 35
2019-08-01 19:00:00 35.1 19 Oeste 32 Oeste 0 946.2 -0.9 33
2019-08-01 18:00:00 35.9 19 Oeste 30 Oeste 0 946.5 -1.2 31
2019-08-01 17:00:00 34.8 14 Noroeste 24 Oeste 0 946.5 -1.8 35
2019-08-01 16:00:00 34.3 13 Oeste 26 Oeste 0 947.1 -1.7 35
2019-08-01 15:00:00 33.4 10 Noroeste 21 Oeste 0 947.7 -1.4 36
2019-08-01 14:00:00 31.6 5 Noroeste 15 Norte 0 948.3 -0.8 37
2019-08-01 13:00:00 30.1 0 Calma 11 Oeste 0 948.8 -0.4 37
2019-08-01 12:00:00 28.6 3 Este 13 Este 0 949.1 -0.3 38
2019-08-01 11:00:00 26 2 Norte 11 Nordeste 0 949.1 0.2 48
2019-08-01 10:00:00 22.9 4 Oeste 11 Noroeste 0 949.2 0.5 62
2019-08-01 09:00:00 20.6 4 Noroeste 5 Oeste 0 949.4 0.7 78
2019-08-01 08:00:00 19.1 4 Sudoeste 5 Sudoeste 0 948.9 0.3 79
2019-08-01 07:00:00 18.7 0 Calma 4 Sudoeste 0 948.7 0.1 78
2019-08-01 06:00:00 19.5 3 Sur 5 Sur 0 948.7 0 75
2019-08-01 05:00:00 19.9 0 Calma 4 Sur 0 948.6 0.1 74
2019-08-01 04:00:00 21.1 3 Sudoeste 8 Noroeste 0 948.6 0.3 72
2019-08-01 03:00:00 21.2 3 Sur 8 Sur 0 948.7 0.5 69
2019-08-01 02:00:00 22 2 Oeste 5 Oeste 0 948.5 0.5 67
2019-08-01 01:00:00 22.9 2 Norte 5 Norte 0 948.3 0.9 66
2019-08-01 00:00:00 24.8 0 Calma 11 Oeste 0 948.2 2.3 60
2019-07-31 23:00:00 25 6 Oeste 17 Oeste 0 948 3 61
2019-07-31 22:00:00 28 13 Sudoeste 30 Oeste 0 947.4 2.7 50
2019-07-31 21:00:00 30.9 23 Oeste 37 Oeste 0 945.9 1 43
2019-07-31 20:00:00 34.6 21 Oeste 30 Oeste 0 945 -0.6 32
2019-07-31 19:00:00 36.9 5 Noroeste 21 Oeste 0 944.7 -1.4 24
2019-07-31 18:00:00 37.1 5 Norte 17 Norte 0 944.9 -2 24
2019-07-31 17:00:00 36.4 8 Nordeste 21 Norte 0 945.6 -1.9 24
2019-07-31 16:00:00 35.7 10 Nordeste 22 Nordeste 0 946.1 -2.2 25
2019-07-31 15:00:00 34.6 4 Noroeste 17 Sudoeste 0 946.9 -1.8 27
2019-07-31 14:00:00 33.3 7 Norte 17 Noroeste 0 947.5 -1.5 30
2019-07-31 13:00:00 31.4 3 Nordeste 21 Norte 0 948.3 -0.6 34
2019-07-31 12:00:00 29.7 7 Este 17 Este 0 948.7 0.2 39
2019-07-31 11:00:00 28.4 9 Sudeste 21 Sudeste 0 949 0 41
2019-07-31 10:00:00 24.9 5 Nordeste 13 Nordeste 0 948.9 1 54
2019-07-31 09:00:00 21.3 2 Sudeste 11 Nordeste 0 948.5 0.9 64
2019-07-31 08:00:00 20.6 5 Sudeste 18 Sur 0 949 1.5 58
2019-07-31 07:00:00 19.8 4 Noroeste 8 Oeste 0 947.9 -0.2 63
2019-07-31 06:00:00 21.7 3 Oeste 13 Oeste 0 947.6 -1 55
2019-07-31 05:00:00 22.4 0 Calma 18 Este 0 947.5 -1.3 55
2019-07-31 04:00:00 22.3 10 Nordeste 18 Nordeste 0 948.1 -0.8 60
2019-07-31 03:00:00 23.8 4 Noroeste 22 Sudeste 0 948.6 0.2 49
2019-07-31 02:00:00 24.4 3 Oeste 15 Sur 0 948.8 1.1 44
2019-07-31 01:00:00 26.1 4 Este 15 Sudoeste 0 948.9 1.9 32
2019-07-31 00:00:00 26.3 11 Sudoeste 18 Oeste 0 948.4 2.1 32
2019-07-30 23:00:00 27.8 0 Calma 17 Sur 0 947.7 1.7 32
2019-07-30 22:00:00 30.4 10 Sur 22 Sur 0 947 1.1 27
2019-07-30 21:00:00 33.1 14 Oeste 24 Oeste 0 946.3 0.3 23
2019-07-30 20:00:00 35.2 14 Oeste 26 Oeste 0 946 -0.3 22
2019-07-30 19:00:00 36 14 Oeste 26 Oeste 0 945.9 -0.9 19
2019-07-30 18:00:00 36.8 10 Oeste 26 Noroeste 0 946 -1.5 16
2019-07-30 17:00:00 36.7 10 Oeste 24 Oeste 0 946.3 -1.9 18
2019-07-30 16:00:00 36 12 Noroeste 22 Noroeste 0 946.8 -1.9 19
2019-07-30 15:00:00 34.7 6 Norte 24 Norte 0 947.5 -1.7 21
2019-07-30 14:00:00 33.1 8 Noroeste 17 Oeste 0 948.2 -1.3 24
2019-07-30 13:00:00 31.4 4 Noroeste 11 Norte 0 948.7 -1.2 26
2019-07-30 12:00:00 28.7 4 Noroeste 9 Sudeste 0 949.2 -0.6 34
2019-07-30 11:00:00 26.2 0 Calma 8 Oeste 0 949.5 -0.1 40
2019-07-30 10:00:00 22.8 0 Calma 5 Norte 0 949.9 0.7 49
2019-07-30 09:00:00 20.4 0 Calma 4 Sur 0 949.8 0.8 53
2019-07-30 08:00:00 16 2 Sur 5 Oeste 0 949.6 0.6 65
2019-07-30 07:00:00 15.8 0 Calma 4 Sudoeste 0 949.2 0.5 66
2019-07-30 06:00:00 16.5 0 Calma 4 Sudoeste 0 949 0.2 64
2019-07-30 05:00:00 17.5 0 Calma 5 Norte 0 949 0.2 67
2019-07-30 04:00:00 19.8 0 Calma 4 Sudoeste 0 948.7 -0.2 53
2019-07-30 03:00:00 20.6 3 Sudoeste 15 Sudoeste 0 948.8 0.3 49
2019-07-30 02:00:00 21.8 7 Sudoeste 15 Sudoeste 0 948.8 0.7 44
2019-07-30 01:00:00 22.9 10 Sudoeste 15 Sudoeste 0 948.9 1.6 37
2019-07-30 00:00:00 25.1 3 Oeste 17 Sudoeste 0 948.5 1.9 33
2019-07-29 23:00:00 26.2 12 Sudoeste 17 Sudoeste 0 948.1 1.9 33
2019-07-29 22:00:00 27.6 8 Oeste 26 Oeste 0 947.3 1.4 32
2019-07-29 21:00:00 30.7 19 Oeste 32 Oeste 0 946.6 0.5 28
2019-07-29 20:00:00 32.3 18 Oeste 30 Noroeste 0 946.2 0 30
2019-07-29 19:00:00 33.6 17 Oeste 33 Sudoeste 0 945.9 -0.7 31
2019-07-29 18:00:00 33.8 17 Oeste 39 Oeste 0 946.1 -0.9 31
2019-07-29 17:00:00 34 13 Oeste 32 Oeste 0 946.2 -1.3 29
2019-07-29 16:00:00 33.6 10 Noroeste 26 Oeste 0 946.6 -1.4 29
2019-07-29 15:00:00 32.8 10 Oeste 24 Sudoeste 0 947 -1.3 30
2019-07-29 14:00:00 31.6 5 Oeste 21 Noroeste 0 947.5 -1 34
2019-07-29 13:00:00 29.9 3 Norte 15 Oeste 0 948 -0.5 37
2019-07-29 12:00:00 28.1 4 Oeste 15 Noroeste 0 948.3 0 43
2019-07-29 11:00:00 24.8 4 Norte 15 Noroeste 0 948.5 0.6 54
2019-07-29 10:00:00 22.9 3 Noroeste 8 Oeste 0 948.5 0.9 59
2019-07-29 09:00:00 20 0 Calma 4 Noroeste 0 948.3 1.2 69
2019-07-29 08:00:00 17.4 2 Sudoeste 8 Sudoeste 0 947.9 0.9 74
2019-07-29 07:00:00 17.3 0 Calma 8 Sur 0 947.6 0.8 74
2019-07-29 06:00:00 18.3 2 Sur 4 Sur 0 947.1 0.2 72
2019-07-29 05:00:00 19.4 0 Calma 4 Oeste 0 947 0.2 64
2019-07-29 04:00:00 20.2 2 Oeste 15 Sudoeste 0 946.8 -0.1 64
2019-07-29 03:00:00 21.8 9 Sudoeste 15 Sudoeste 0 946.9 0.2 54
2019-07-29 02:00:00 22.1 12 Sudoeste 15 Sudoeste 0 946.8 0.3 52
2019-07-29 01:00:00 22.5 7 Sudoeste 8 Sudoeste 0 946.9 1.4 53
2019-07-29 00:00:00 24.6 3 Oeste 8 Oeste 0 946.7 2.1 48
2019-07-28 23:00:00 25.2 0 Calma 18 Oeste 0 946.5 2.5 47
2019-07-28 22:00:00 27.6 15 Oeste 32 Oeste 0 945.5 1.9 42
2019-07-28 21:00:00 29.9 17 Oeste 32 Oeste 0 944.6 1 39
2019-07-28 20:00:00 31.2 16 Oeste 26 Oeste 0 944 0 36
2019-07-28 19:00:00 32.4 17 Oeste 30 Oeste 0 943.6 -0.7 32
2019-07-28 18:00:00 33 13 Oeste 37 Noroeste 0 943.6 -1.2 28
2019-07-28 17:00:00 33 11 Oeste 28 Noroeste 0 944 -1.3 27
2019-07-28 16:00:00 32.1 8 Oeste 24 Oeste 0 944.3 -1.7 35
2019-07-28 15:00:00 30.7 8 Noroeste 21 Norte 0 944.8 -1.5 39
2019-07-28 14:00:00 29.3 5 Noroeste 17 Oeste 0 945.3 -1.5 44
2019-07-28 13:00:00 27.7 3 Sur 13 Norte 0 946 -0.9 48
2019-07-28 12:00:00 25.5 2 Este 11 Este 0 946.3 -0.7 55
2019-07-28 11:00:00 23.1 3 Norte 13 Norte 0 946.8 -0.1 65
2019-07-28 10:00:00 21.3 0 Calma 5 Norte 0 946.9 0.3 74
2019-07-28 09:00:00 19.5 0 Calma 5 Norte 0 947 0.7 82
2019-07-28 08:00:00 17.1 3 Sudoeste 4 Sudoeste 0 946.9 0.8 88
2019-07-28 07:00:00 16.9 0 Calma 5 Sudoeste 0 946.6 0.5 90
2019-07-28 06:00:00 16.9 2 Oeste 13 Sudoeste 0 946.3 -0.5 91
2019-07-28 05:00:00 18.2 4 Sudoeste 17 Oeste 0 946.1 -1.1 86
2019-07-28 04:00:00 18.6 8 Sudoeste 15 Sudoeste 0 946.1 -1.2 84
2019-07-28 03:00:00 19.1 8 Oeste 22 Oeste 0 946.8 -0.6 81
2019-07-28 02:00:00 19.7 12 Oeste 15 Oeste 0 947.2 0.1 79
2019-07-28 01:00:00 20.5 0 Calma 24 Oeste 0 947.3 0.7 75
2019-07-28 00:00:00 21.3 17 Oeste 26 Oeste 0 947.4 1.3 71
2019-07-27 23:00:00 22.4 18 Oeste 28 Oeste 0 947.1 1.3 65
2019-07-26 12:00:00 27.5 3 Sudoeste 11 Oeste 0 949.1 -0.7 42
2019-07-26 11:00:00 25.7 4 Noroeste 11 Noroeste 0 949.7 0.1 45
2019-07-26 10:00:00 23.9 3 Noroeste 8 Noroeste 0 949.8 0.3 52
2019-07-26 09:00:00 23.1 0 Calma 4 Sur 0 949.8 0.6 52
2019-07-26 08:00:00 20.3 0 Calma 9 Noroeste 0 949.6 0.5 60
2019-07-26 07:00:00 20.5 8 Sudoeste 17 Sudoeste 0 949.5 0.4 60
2019-07-26 06:00:00 20.7 8 Oeste 17 Oeste 0 949.2 -0.4 62
2019-07-26 05:00:00 20.2 0 Calma 11 Sudoeste 0 949.1 -0.7 65
2019-07-26 04:00:00 21.7 3 Oeste 5 Sudeste 0 949.1 -1 61
2019-07-26 03:00:00 22.6 0 Calma 13 Oeste 0 949.6 -0.5 62
2019-07-26 02:00:00 24.1 10 Sur 17 Sur 0 949.8 0.4 59
2019-07-26 01:00:00 25.9 12 Sur 18 Oeste 0 950.1 1.6 55
2019-07-26 00:00:00 26.9 14 Oeste 26 Oeste 0 950.1 2.3 57
2019-07-25 23:00:00 28.5 18 Oeste 30 Oeste 0 949.4 1.9 55
2019-07-25 22:00:00 30.2 14 Sudoeste 28 Sudoeste 0 948.5 1 33
2019-07-25 21:00:00 33.2 10 Sudoeste 33 Sudoeste 0 947.8 0.2 25
2019-07-25 20:00:00 35.2 17 Sudoeste 30 Sudoeste 0 947.5 -0.3 17
2019-07-25 19:00:00 36.9 19 Sudoeste 32 Sudoeste 0 947.5 -0.6 12
2019-07-25 18:00:00 37.5 19 Sudoeste 30 Sudoeste 0 947.6 -1.1 15
2019-07-25 17:00:00 37.6 22 Oeste 32 Oeste 0 947.8 -1.3 15
2019-07-25 16:00:00 37.1 17 Oeste 32 Oeste 0 948.1 -1.3 18
2019-07-25 15:00:00 36.1 13 Oeste 28 Noroeste 0 948.7 -1.1 23
2019-07-25 14:00:00 35.3 4 Nordeste 21 Norte 0 949.1 -1 22
2019-07-25 13:00:00 33.6 4 Nordeste 15 Norte 0 949.4 -1.1 24
2019-07-25 12:00:00 31.3 3 Norte 9 Noroeste 0 949.8 -0.6 27
2019-07-25 11:00:00 28.9 0 Calma 8 Noroeste 0 950.1 -0.2 32
2019-07-25 10:00:00 25.2 3 Noroeste 8 Noroeste 0 950.5 0.6 43
2019-07-25 09:00:00 23.1 0 Calma 4 Sur 0 950.4 0.7 42
2019-07-25 08:00:00 19 0 Calma 4 Sudoeste 0 950.3 0.4 52
2019-07-25 07:00:00 19.4 3 Sudoeste 8 Sur 0 949.9 0.1 49
2019-07-25 06:00:00 19.7 5 Norte 8 Noroeste 0 949.7 0.1 54
2019-07-25 05:00:00 21 4 Sudoeste 11 Sur 0 949.9 -0.1 50
2019-07-25 04:00:00 21.6 0 Calma 5 Oeste 0 949.8 -0.2 49
2019-07-25 03:00:00 22.9 3 Noroeste 11 Sudeste 0 949.6 -0.3 46
2019-07-25 02:00:00 24.6 3 Sudeste 15 Este 0 950 0.7 42
2019-07-25 01:00:00 28.4 2 Este 28 Sur 0 950 1.6 32
2019-07-25 00:00:00 29.1 6 Nordeste 22 Noroeste 0 949.9 2.1 31
2019-07-24 23:00:00 30.4 12 Norte 26 Norte 0 949.3 1.7 27
2019-07-24 22:00:00 31.2 5 Noroeste 21 Sur 0 948.4 0.8 26
2019-07-24 21:00:00 34.6 15 Sur 30 Sur 0 947.8 0 23
2019-07-24 20:00:00 37 16 Sudoeste 26 Sudoeste 0 947.6 -0.5 16
2019-07-24 19:00:00 37.7 15 Sur 33 Sudoeste 0 947.6 -0.7 15
2019-07-24 18:00:00 38.7 19 Sudoeste 35 Sur 0 947.8 -0.9 13
2019-07-24 17:00:00 38.8 21 Sur 37 Sur 0 948.1 -1.2 14
2019-07-24 16:00:00 39 23 Sur 41 Sudeste 0 948.3 -1.3 15
2019-07-24 15:00:00 38.7 20 Sur 35 Sur 0 948.7 -1.5 18
2019-07-24 14:00:00 36 7 Nordeste 18 Nordeste 0 949.3 -1.1 21
2019-07-24 13:00:00 34.2 3 Este 15 Este 0 949.6 -0.9 22
2019-07-24 12:00:00 31.3 5 Norte 15 Norte 0 950.2 -0.4 30
2019-07-24 11:00:00 29.2 2 Noroeste 9 Norte 0 950.4 0.2 29
2019-07-24 10:00:00 26.2 0 Calma 8 Noroeste 0 950.5 0.5 36
2019-07-24 09:00:00 22.8 3 Oeste 8 Sudoeste 0 950.6 0.5 49
2019-07-24 08:00:00 18.9 6 Sudoeste 8 Sur 0 950.2 -0.3 49
2019-07-24 07:00:00 18.3 3 Sudoeste 5 Sudoeste 0 950 -0.9 52
2019-07-24 06:00:00 19.5 0 Calma 8 Sur 0 950.1 -1 51
2019-07-24 05:00:00 20 4 Sur 5 Sur 0 950.5 -0.6 48
2019-07-24 04:00:00 20.9 0 Calma 13 Sur 0 950.9 -0.2 48
2019-07-24 03:00:00 22.1 4 Norte 13 Norte 0 951.1 0.1 49
2019-07-24 02:00:00 24.3 2 Sur 11 Este 0 951.1 0.6 45
2019-07-24 01:00:00 26 3 Sur 8 Sur 0 951.1 1.9 41
2019-07-24 00:00:00 28.3 0 Calma 15 Sudeste 0 951 2.4 35